Decoded Metar for KFOK (WEST HAMPTON BEACH in NY, USA) (IATA:FOK) | Meteo·Mobile Aviation Weather
aviador You're here:

KFOK Decoded Metar

WEST HAMPTON BEACH in NY, USA
Report Time2018-09-19 14:20:00
UTC Time2018-09-19 14:26:07
Flight Rules mvfr MVFR
Wind010° at 08 kt
W.Decomp.*RWY 01: 7.8 kt HW 1.8 kt RCW
RWY 06: 6.4 kt HW 4.8 kt LCW
RWY 33: 4.8 kt HW 6.4 kt RCW
W.Rank010° ranks 15
Current wind is below 010° avg. (8.3)
Visibility9999 m
Phenomena:N/A
Clouds:Overcast 014 Hf
Expected CloudBase > 1,200 ft AGL from Temp-Dew spread
Ceiling1,400 ft
Temp22°C (ISA +7)
Dew Point19°C (83% RH)
QNH1013 hPa
Density Alt1,240 ft
Elevation108 ft
Report Wrong Elevation
Raw Report
SPECI KFOK 191420Z 01008KT 10SM OVC014 22/19 A2990 RMK AO2 T02220194=

Extra information for KFOK:More info

Metar Taf Metar & Taf Last 4 Metars F.Rules Stats Wind Profile Meteogram Temp Stats Airport Information Weather charts Add Link Nearby VenuesMetar ALERT Operation Metar Decoded Social comments

AIRNAV info for KFOK